Neudorf, Canada
Current Conditions -  °F | °C
As of 11:27 AM on Thursday 27 Nov 2014 (Local Time) from CYQV Reporting Station
Overcast Overcast  
Wind Chill: -11°   Ceiling: 2200
Heat Index:   Visibility: 9mi
Dew Point:   Wind: 9mph
Humidity: 92%   Direction: 150°SSE
Pressure: 30.14"   Gusts: NA
Location:  50.72°N, 103°W
Report Text: CYQV 271727Z AUTO 15008KT 9SM OVC022 M16/M17 A3014 RMK SLP263
Loading
Personal Weather Stations






























Interactive Weather Map New forecast layout! Learn more

10-Day Weather Forecast

Advertisements
Track Severe Weather on mobile